Time;durP1;ratioP1;P1;durP2;ratioP2;P2;SDS_P1;SDS_P2;PMS_P1;PMS_P2;Temp;Humidity;BMP_temperature;BMP_pressure;BME280_temperature;BME280_humidity;BME280_pressure;Samples;Min_cycle;Max_cycle;Signal;HPM_P1;HPM_P2
2023/01/01 00:00:37;;;;;;;;;;;15.80;63.50;;;;;;5075964;28;20010;-66
2023/01/01 00:03:02;;;;;;;;;;;15.70;63.40;;;;;;5093968;28;20007;-66
2023/01/01 00:05:28;;;;;;;;;;;15.80;63.50;;;;;;5093906;28;20292;-71
2023/01/01 00:07:54;;;;;;;;;;;15.80;63.50;;;;;;5094037;28;20010;-66
2023/01/01 00:10:34;;;;;;;;;;;15.70;63.50;;;;;;5076039;28;19920;-66
2023/01/01 00:13:00;;;;;;;;;;;15.70;63.50;;;;;;5075502;28;20371;-66
2023/01/01 00:15:26;;;;;;;;;;;15.80;63.50;;;;;;5075921;28;19926;-66
2023/01/01 00:17:51;;;;;;;;;;;15.70;63.50;;;;;;5075571;28;19977;-66
2023/01/01 00:20:17;;;;;;;;;;;15.80;63.60;;;;;;5093835;28;20372;-72
2023/01/01 00:22:42;;;;;;;;;;;15.80;63.60;;;;;;5093564;28;20429;-66
2023/01/01 00:25:09;;;;;;;;;;;15.70;63.50;;;;;;5075718;28;19924;-66
2023/01/01 00:27:35;;;;;;;;;;;15.70;63.50;;;;;;5075580;28;19927;-66
2023/01/01 00:30:01;;;;;;;;;;;15.70;63.50;;;;;;5093477;28;19920;-66
2023/01/01 00:32:26;;;;;;;;;;;15.70;63.50;;;;;;5093344;28;19927;-66
2023/01/01 00:34:52;;;;;;;;;;;15.80;63.50;;;;;;5093342;28;19927;-66
2023/01/01 00:37:17;;;;;;;;;;;15.70;63.50;;;;;;5075348;28;19920;-66
2023/01/01 00:39:43;;;;;;;;;;;15.70;63.50;;;;;;5093016;28;20323;-66
2023/01/01 00:42:09;;;;;;;;;;;15.70;63.50;;;;;;5093221;28;19931;-70
2023/01/01 00:44:34;;;;;;;;;;;15.80;64.30;;;;;;5074352;28;19920;-73
2023/01/01 00:47:00;;;;;;;;;;;15.70;63.50;;;;;;5074543;28;19920;-66
2023/01/01 00:49:26;;;;;;;;;;;15.70;63.50;;;;;;5074838;28;19920;-66
2023/01/01 00:51:52;;;;;;;;;;;15.70;63.50;;;;;;5093073;28;19920;-66
2023/01/01 00:54:18;;;;;;;;;;;15.70;63.50;;;;;;5075194;28;19981;-66
2023/01/01 00:56:43;;;;;;;;;;;15.80;63.60;;;;;;5074897;28;19920;-71
2023/01/01 00:59:09;;;;;;;;;;;15.70;63.50;;;;;;5092818;28;19972;-66
2023/01/01 01:01:34;;;;;;;;;;;15.70;63.50;;;;;;5093038;28;20010;-66
2023/01/01 01:04:01;;;;;;;;;;;15.70;63.50;;;;;;5092713;28;19920;-66
2023/01/01 01:06:27;;;;;;;;;;;15.70;63.50;;;;;;5074484;28;20267;-66
2023/01/01 01:08:52;;;;;;;;;;;15.70;63.50;;;;;;5074844;28;19920;-68
2023/01/01 01:11:19;;;;;;;;;;;15.70;63.50;;;;;;5092801;28;19959;-66
2023/01/01 01:13:46;;;;;;;;;;;15.70;63.50;;;;;;5092637;28;20539;-66
2023/01/01 01:16:13;;;;;;;;;;;15.70;63.50;;;;;;5074597;28;19920;-71
2023/01/01 01:18:39;;;;;;;;;;;15.70;63.50;;;;;;5074473;28;19960;-72
2023/01/01 01:21:05;;;;;;;;;;;15.70;63.50;;;;;;5074782;28;19974;-66
2023/01/01 01:23:31;;;;;;;;;;;15.70;63.50;;;;;;5074447;28;20337;-67
2023/01/01 01:26:13;;;;;;;;;;;15.70;63.50;;;;;;5074470;28;20319;-71
2023/01/01 01:28:39;;;;;;;;;;;15.70;63.50;;;;;;5074676;28;20015;-72
2023/01/01 01:31:05;;;;;;;;;;;15.70;63.50;;;;;;5092544;28;20015;-72
2023/01/01 01:33:30;;;;;;;;;;;15.70;63.50;;;;;;5074682;28;19920;-66
2023/01/01 01:35:56;;;;;;;;;;;15.70;63.50;;;;;;5074352;28;20036;-66
2023/01/01 01:38:21;;;;;;;;;;;15.70;63.50;;;;;;5074021;28;19928;-66
2023/01/01 01:40:47;;;;;;;;;;;15.70;63.50;;;;;;5074286;28;20038;-66
2023/01/01 01:43:20;;;;;;;;;;;15.80;63.50;;;;;;5074597;28;20006;-71
2023/01/01 01:45:45;;;;;;;;;;;15.70;63.50;;;;;;5092442;28;19943;-66
2023/01/01 01:48:11;;;;;;;;;;;15.70;63.50;;;;;;5074187;28;20519;-66
2023/01/01 01:50:39;;;;;;;;;;;15.70;63.40;;;;;;5074486;28;19920;-66
2023/01/01 01:53:15;;;;;;;;;;;15.70;63.40;;;;;;5074242;28;19920;-66
2023/01/01 01:55:43;;;;;;;;;;;15.70;63.40;;;;;;5074478;28;19920;-66
2023/01/01 01:58:10;;;;;;;;;;;15.70;63.40;;;;;;5074326;28;19924;-66
2023/01/01 02:00:36;;;;;;;;;;;15.70;63.40;;;;;;5077002;28;20437;-66
2023/01/01 02:03:06;;;;;;;;;;;15.80;63.50;;;;;;5096345;28;19920;-72
2023/01/01 02:05:33;;;;;;;;;;;15.70;63.40;;;;;;5078150;28;19974;-71
2023/01/01 02:07:59;;;;;;;;;;;15.70;63.40;;;;;;5078384;28;19924;-71
2023/01/01 02:10:25;;;;;;;;;;;15.70;63.40;;;;;;5096317;28;20285;-71
2023/01/01 02:12:51;;;;;;;;;;;15.70;63.40;;;;;;5078264;28;20292;-71
2023/01/01 02:15:16;;;;;;;;;;;15.80;63.50;;;;;;5077269;28;19924;-66
2023/01/01 02:17:50;;;;;;;;;;;15.70;63.40;;;;;;5078039;28;19920;-66
2023/01/01 02:20:35;;;;;;;;;;;15.80;64.20;;;;;;5078110;28;19920;-66
2023/01/01 02:23:08;;;;;;;;;;;15.70;63.40;;;;;;5095204;28;19927;-66
2023/01/01 02:25:42;;;;;;;;;;;15.70;63.40;;;;;;5078139;28;19932;-66
2023/01/01 02:30:49;;;;;;;;;;;15.70;63.40;;;;;;5089973;28;19919;-71
2023/01/01 02:33:17;;;;;;;;;;;15.70;63.40;;;;;;5088758;28;19920;-65
2023/01/01 02:35:48;;;;;;;;;;;15.70;63.40;;;;;;5088929;28;19942;-66
2023/01/01 02:38:17;;;;;;;;;;;15.70;63.40;;;;;;5089769;28;19921;-65
2023/01/01 02:40:45;;;;;;;;;;;15.70;63.40;;;;;;5088691;28;19927;-66
2023/01/01 02:43:11;;;;;;;;;;;15.70;63.40;;;;;;5088428;28;19920;-66
2023/01/01 02:45:36;;;;;;;;;;;15.70;63.30;;;;;;5088409;28;19966;-66
2023/01/01 02:48:04;;;;;;;;;;;15.80;63.40;;;;;;5089660;28;19955;-65
2023/01/01 02:50:29;;;;;;;;;;;15.70;63.40;;;;;;5089574;28;19959;-66
2023/01/01 03:01:30;;;;;;;;;;;15.70;63.30;;;;;;5174320;27;19922;-65
2023/01/01 03:06:54;;;;;;;;;;;15.70;63.30;;;;;;5110407;27;19940;-72
2023/01/01 03:09:32;;;;;;;;;;;15.70;63.30;;;;;;5108981;28;19951;-71
2023/01/01 03:12:04;;;;;;;;;;;15.70;63.30;;;;;;5110267;28;20333;-65
2023/01/01 03:14:41;;;;;;;;;;;15.60;63.30;;;;;;5109069;28;19924;-65
2023/01/01 03:20:06;;;;;;;;;;;15.70;63.30;;;;;;5129614;27;1866762;-65
2023/01/01 03:22:34;;;;;;;;;;;15.70;63.20;;;;;;5174395;27;19950;-72
2023/01/01 03:25:03;;;;;;;;;;;15.70;63.20;;;;;;5174731;27;19956;-66
2023/01/01 03:27:32;;;;;;;;;;;15.70;63.20;;;;;;5156034;27;19919;-65
2023/01/01 03:29:59;;;;;;;;;;;15.70;63.20;;;;;;5153486;27;19922;-65
2023/01/01 03:32:59;;;;;;;;;;;15.70;63.20;;;;;;5153758;27;19926;-66
2023/01/01 03:35:14;;;;;;;;;;;15.70;63.20;;;;;;5153135;27;19971;-65
2023/01/01 03:37:42;;;;;;;;;;;15.70;63.20;;;;;;5153531;27;20066;-71
2023/01/01 03:40:09;;;;;;;;;;;15.70;63.20;;;;;;5153446;27;19919;-65
2023/01/01 03:42:37;;;;;;;;;;;15.70;63.20;;;;;;5172096;27;20386;-65
2023/01/01 03:45:05;;;;;;;;;;;15.70;63.20;;;;;;5153169;27;19919;-65
2023/01/01 03:47:31;;;;;;;;;;;15.70;63.20;;;;;;5153521;27;19919;-66
2023/01/01 03:49:57;;;;;;;;;;;15.80;63.20;;;;;;5152965;27;19923;-71
2023/01/01 03:52:41;;;;;;;;;;;15.70;63.20;;;;;;5153285;27;19926;-65
2023/01/01 03:55:11;;;;;;;;;;;15.70;63.10;;;;;;5152990;27;19922;-65
2023/01/01 03:57:43;;;;;;;;;;;15.70;63.10;;;;;;5153052;27;20378;-66
2023/01/01 04:00:15;;;;;;;;;;;15.70;63.10;;;;;;5153108;27;20013;-65
2023/01/01 04:02:44;;;;;;;;;;;15.70;63.10;;;;;;5152756;27;19955;-72
2023/01/01 04:05:10;;;;;;;;;;;15.70;63.10;;;;;;5152734;27;19919;-65
2023/01/01 04:07:35;;;;;;;;;;;15.70;63.10;;;;;;5153047;27;19919;-65
2023/01/01 04:10:15;;;;;;;;;;;15.70;63.00;;;;;;5152989;27;20021;-71
2023/01/01 04:12:49;;;;;;;;;;;15.70;63.10;;;;;;5152831;27;19926;-71
2023/01/01 04:15:16;;;;;;;;;;;15.70;63.10;;;;;;5151748;27;19919;-65
2023/01/01 04:17:42;;;;;;;;;;;15.70;63.00;;;;;;5170669;27;19971;-71
2023/01/01 04:20:08;;;;;;;;;;;15.70;63.00;;;;;;5170417;27;19927;-71
2023/01/01 04:22:33;;;;;;;;;;;15.70;63.00;;;;;;5170670;27;19929;-65
2023/01/01 04:24:59;;;;;;;;;;;15.70;62.90;;;;;;5152698;27;20009;-71
2023/01/01 04:27:24;;;;;;;;;;;15.80;63.00;;;;;;5152202;27;19919;-70
2023/01/01 04:29:50;;;;;;;;;;;15.70;63.00;;;;;;5165524;27;19919;-65
2023/01/01 04:32:16;;;;;;;;;;;15.70;62.90;;;;;;5156802;27;19919;-65
2023/01/01 04:34:41;;;;;;;;;;;15.70;62.90;;;;;;5157061;27;19926;-71
2023/01/01 04:37:07;;;;;;;;;;;15.70;62.90;;;;;;5138100;27;19930;-71
2023/01/01 04:39:32;;;;;;;;;;;15.70;62.90;;;;;;5156496;27;20006;-65
2023/01/01 04:41:58;;;;;;;;;;;15.70;62.90;;;;;;5137845;27;19926;-65
2023/01/01 04:44:23;;;;;;;;;;;15.80;62.90;;;;;;5138470;27;19942;-72
2023/01/01 04:46:49;;;;;;;;;;;15.70;62.90;;;;;;5156393;27;20572;-65
2023/01/01 04:49:14;;;;;;;;;;;15.80;62.90;;;;;;5138132;27;19919;-66
2023/01/01 04:51:40;;;;;;;;;;;15.70;62.90;;;;;;5156941;27;19926;-65
2023/01/01 04:54:05;;;;;;;;;;;15.70;62.80;;;;;;5156782;27;19915;-65
2023/01/01 04:56:31;;;;;;;;;;;15.70;62.90;;;;;;5138306;27;20018;-65
2023/01/01 04:58:57;;;;;;;;;;;15.70;62.90;;;;;;5137682;27;19930;-65
2023/01/01 05:01:24;;;;;;;;;;;15.70;62.90;;;;;;5156489;27;19921;-65
2023/01/01 05:03:50;;;;;;;;;;;15.70;62.90;;;;;;5137806;27;19965;-66
2023/01/01 05:06:16;;;;;;;;;;;15.70;62.80;;;;;;5156354;27;19966;-65
2023/01/01 05:08:43;;;;;;;;;;;15.70;62.80;;;;;;5156345;27;19963;-71
2023/01/01 05:11:10;;;;;;;;;;;15.70;62.80;;;;;;5156306;27;19966;-65
2023/01/01 05:13:36;;;;;;;;;;;15.70;62.80;;;;;;5156421;27;19942;-65
2023/01/01 05:16:03;;;;;;;;;;;15.70;62.70;;;;;;5156101;27;19967;-71
2023/01/01 05:18:28;;;;;;;;;;;15.70;62.80;;;;;;5155609;27;20002;-65
2023/01/01 05:20:58;;;;;;;;;;;15.70;62.80;;;;;;5137616;27;19962;-72
2023/01/01 05:23:24;;;;;;;;;;;15.70;62.70;;;;;;5155919;27;19915;-65
2023/01/01 05:25:49;;;;;;;;;;;15.70;62.70;;;;;;5156158;27;19915;-65
2023/01/01 05:28:15;;;;;;;;;;;15.70;62.70;;;;;;5137686;27;19915;-65
2023/01/01 05:30:40;;;;;;;;;;;15.80;62.80;;;;;;5137353;27;20385;-65
2023/01/01 05:33:06;;;;;;;;;;;15.70;62.60;;;;;;5137144;27;19930;-65
2023/01/01 05:35:31;;;;;;;;;;;15.70;62.60;;;;;;5137441;27;19919;-71
2023/01/01 05:37:57;;;;;;;;;;;15.70;62.50;;;;;;5155452;27;19927;-71
2023/01/01 05:40:22;;;;;;;;;;;15.80;62.60;;;;;;5155501;27;19919;-71
2023/01/01 05:42:48;;;;;;;;;;;15.80;62.60;;;;;;5136282;27;20290;-65
2023/01/01 05:45:13;;;;;;;;;;;15.70;62.50;;;;;;5136985;27;19951;-65
2023/01/01 05:47:39;;;;;;;;;;;15.80;62.50;;;;;;5137433;27;19922;-65
2023/01/01 05:50:05;;;;;;;;;;;15.70;62.40;;;;;;5137466;27;20394;-72
2023/01/01 05:52:30;;;;;;;;;;;15.70;62.40;;;;;;5136578;27;20027;-71
2023/01/01 05:54:57;;;;;;;;;;;15.70;62.40;;;;;;5155439;27;19925;-66
2023/01/01 05:57:23;;;;;;;;;;;15.70;62.40;;;;;;5136909;27;20368;-65
2023/01/01 05:59:48;;;;;;;;;;;15.70;62.30;;;;;;5136313;27;19920;-65
2023/01/01 06:02:14;;;;;;;;;;;15.70;62.30;;;;;;5136796;27;19954;-65
2023/01/01 06:04:39;;;;;;;;;;;15.70;62.30;;;;;;5136588;27;19954;-72
2023/01/01 06:07:05;;;;;;;;;;;15.70;62.30;;;;;;5136640;27;19915;-65
2023/01/01 06:09:30;;;;;;;;;;;15.70;62.30;;;;;;5136777;27;19915;-65
2023/01/01 06:11:56;;;;;;;;;;;15.70;62.30;;;;;;5155036;27;19938;-66
2023/01/01 06:14:21;;;;;;;;;;;15.70;62.20;;;;;;5154270;27;20006;-65
2023/01/01 06:16:47;;;;;;;;;;;15.70;62.20;;;;;;5136477;27;20003;-65
2023/01/01 06:19:12;;;;;;;;;;;15.70;62.20;;;;;;5154237;27;19972;-71
2023/01/01 06:21:38;;;;;;;;;;;15.70;62.20;;;;;;5136277;27;19923;-65
2023/01/01 06:24:04;;;;;;;;;;;15.70;62.20;;;;;;5154790;27;19926;-65
2023/01/01 06:26:30;;;;;;;;;;;15.70;62.20;;;;;;5154907;27;19919;-66
2023/01/01 06:28:56;;;;;;;;;;;15.70;62.20;;;;;;5154775;27;20002;-72
2023/01/01 06:31:22;;;;;;;;;;;15.70;62.20;;;;;;5136183;27;20416;-65
2023/01/01 06:33:49;;;;;;;;;;;15.70;62.20;;;;;;5154543;27;19998;-65
2023/01/01 06:36:16;;;;;;;;;;;15.70;62.20;;;;;;5136355;27;19919;-72
2023/01/01 06:38:42;;;;;;;;;;;15.70;62.20;;;;;;5136087;27;19927;-65
2023/01/01 06:41:11;;;;;;;;;;;15.70;62.20;;;;;;5136262;27;19919;-66
2023/01/01 06:43:36;;;;;;;;;;;15.70;62.20;;;;;;5136315;27;19933;-66
2023/01/01 06:46:06;;;;;;;;;;;15.70;62.10;;;;;;5135945;27;19919;-65
2023/01/01 06:48:33;;;;;;;;;;;15.70;62.10;;;;;;5135769;27;20392;-72
2023/01/01 06:51:04;;;;;;;;;;;15.70;62.10;;;;;;5135822;27;19971;-71
2023/01/01 06:53:29;;;;;;;;;;;15.70;62.10;;;;;;5135524;27;19933;-65
2023/01/01 06:55:55;;;;;;;;;;;15.70;62.00;;;;;;5154382;27;19919;-65
2023/01/01 06:58:20;;;;;;;;;;;15.70;62.00;;;;;;5154235;27;19923;-65
2023/01/01 07:00:46;;;;;;;;;;;15.70;62.10;;;;;;5135637;27;20317;-65
2023/01/01 07:03:11;;;;;;;;;;;15.70;62.00;;;;;;5135601;27;19919;-72
2023/01/01 07:05:37;;;;;;;;;;;15.70;62.00;;;;;;5154148;27;19952;-72
2023/01/01 07:08:02;;;;;;;;;;;15.70;62.00;;;;;;5154153;27;20347;-65
2023/01/01 07:10:28;;;;;;;;;;;15.70;61.90;;;;;;5135847;27;19919;-68
2023/01/01 07:12:53;;;;;;;;;;;15.60;61.90;;;;;;5154123;27;20378;-71
2023/01/01 07:15:19;;;;;;;;;;;15.70;61.90;;;;;;5154025;27;19926;-66
2023/01/01 07:17:44;;;;;;;;;;;15.70;61.90;;;;;;5154017;27;19923;-66
2023/01/01 07:20:10;;;;;;;;;;;15.70;61.90;;;;;;5153571;27;20017;-66
2023/01/01 07:22:37;;;;;;;;;;;15.60;61.80;;;;;;5153980;27;19919;-66
2023/01/01 07:25:02;;;;;;;;;;;15.60;61.80;;;;;;5135147;27;19919;-66
2023/01/01 07:27:28;;;;;;;;;;;15.60;61.80;;;;;;5135696;27;20405;-66
2023/01/01 07:29:53;;;;;;;;;;;15.60;61.80;;;;;;5135443;27;20051;-72
2023/01/01 07:32:19;;;;;;;;;;;15.60;61.80;;;;;;5135565;27;20009;-73
2023/01/01 07:34:44;;;;;;;;;;;15.60;61.80;;;;;;5135619;27;20297;-72
2023/01/01 07:37:10;;;;;;;;;;;15.60;61.70;;;;;;5135554;27;20007;-66
2023/01/01 07:39:35;;;;;;;;;;;15.60;61.70;;;;;;5135188;27;20013;-71
2023/01/01 07:42:01;;;;;;;;;;;15.70;61.80;;;;;;5135218;27;19925;-72
2023/01/01 07:44:26;;;;;;;;;;;15.70;61.80;;;;;;5135217;27;19930;-72
2023/01/01 07:47:12;;;;;;;;;;;15.70;61.70;;;;;;5135163;27;20009;-66
2023/01/01 07:49:37;;;;;;;;;;;15.70;61.70;;;;;;5153528;27;19927;-71
2023/01/01 07:52:03;;;;;;;;;;;15.70;61.70;;;;;;5135061;27;19919;-66
2023/01/01 07:54:28;;;;;;;;;;;15.60;61.70;;;;;;5135363;27;19964;-66
2023/01/01 07:56:54;;;;;;;;;;;15.60;61.70;;;;;;5153770;27;20405;-66
2023/01/01 07:59:19;;;;;;;;;;;15.60;61.70;;;;;;5153585;27;20022;-66
2023/01/01 08:01:45;;;;;;;;;;;15.60;61.60;;;;;;5135096;27;19925;-66
2023/01/01 08:04:10;;;;;;;;;;;15.60;61.60;;;;;;5153534;27;19925;-73
2023/01/01 08:06:36;;;;;;;;;;;15.60;61.60;;;;;;5138885;27;19919;-66
2023/01/01 08:09:02;;;;;;;;;;;15.60;61.60;;;;;;5157686;27;19919;-66
2023/01/01 08:11:27;;;;;;;;;;;15.60;61.60;;;;;;5138939;27;20530;-66
2023/01/01 08:13:53;;;;;;;;;;;15.70;61.60;;;;;;5139016;27;19919;-66
2023/01/01 08:16:19;;;;;;;;;;;15.60;61.60;;;;;;5157329;27;19963;-72
2023/01/01 08:18:45;;;;;;;;;;;15.70;61.60;;;;;;5157114;27;19923;-66
2023/01/01 08:21:10;;;;;;;;;;;15.60;61.60;;;;;;5138417;27;19927;-66
2023/01/01 08:23:36;;;;;;;;;;;15.60;61.50;;;;;;5138531;27;19975;-66
2023/01/01 08:26:02;;;;;;;;;;;15.60;61.50;;;;;;5138641;27;19927;-66
2023/01/01 08:28:28;;;;;;;;;;;15.60;61.50;;;;;;5138562;27;20545;-66
2023/01/01 08:30:54;;;;;;;;;;;15.60;61.60;;;;;;5157110;27;19969;-72
2023/01/01 08:33:20;;;;;;;;;;;15.60;61.50;;;;;;5138323;27;20007;-66
2023/01/01 08:35:45;;;;;;;;;;;15.70;61.60;;;;;;5138449;27;19967;-72
2023/01/01 08:38:11;;;;;;;;;;;15.60;61.50;;;;;;5138168;27;19980;-66
2023/01/01 08:40:37;;;;;;;;;;;15.60;61.50;;;;;;5138269;27;20017;-72
2023/01/01 08:43:02;;;;;;;;;;;15.60;61.50;;;;;;5138566;27;19927;-66
2023/01/01 08:45:28;;;;;;;;;;;15.60;61.50;;;;;;5138556;27;19926;-73
2023/01/01 08:47:53;;;;;;;;;;;15.70;61.60;;;;;;5156801;27;20425;-66
2023/01/01 08:50:19;;;;;;;;;;;15.60;61.40;;;;;;5156541;27;20374;-66
2023/01/01 08:52:44;;;;;;;;;;;15.60;61.40;;;;;;5138092;27;19963;-66
2023/01/01 08:55:10;;;;;;;;;;;15.60;61.40;;;;;;5156583;27;19926;-66
2023/01/01 08:57:35;;;;;;;;;;;15.60;61.50;;;;;;5138115;27;20526;-66
2023/01/01 09:00:01;;;;;;;;;;;15.60;61.40;;;;;;5137829;27;20063;-71
2023/01/01 09:02:26;;;;;;;;;;;15.60;61.40;;;;;;5137884;27;20431;-67
2023/01/01 09:04:52;;;;;;;;;;;15.60;61.40;;;;;;5137883;27;19926;-72
2023/01/01 09:07:17;;;;;;;;;;;15.60;61.40;;;;;;5156335;27;19919;-66
2023/01/01 09:09:43;;;;;;;;;;;15.60;61.40;;;;;;5137768;27;19919;-72
2023/01/01 09:12:09;;;;;;;;;;;15.60;61.40;;;;;;5137762;27;19919;-66
2023/01/01 09:14:35;;;;;;;;;;;15.60;62.10;;;;;;5137814;27;19926;-72
2023/01/01 09:17:01;;;;;;;;;;;15.60;61.30;;;;;;5137532;27;19919;-72
2023/01/01 09:19:26;;;;;;;;;;;15.60;61.30;;;;;;5137090;27;19983;-72
2023/01/01 09:21:52;;;;;;;;;;;15.60;61.30;;;;;;5155998;27;19971;-66
2023/01/01 09:24:18;;;;;;;;;;;15.60;61.30;;;;;;5155924;27;19919;-66
2023/01/01 09:26:44;;;;;;;;;;;15.60;61.20;;;;;;5137504;27;19969;-66
2023/01/01 09:29:10;;;;;;;;;;;15.60;61.30;;;;;;5155973;27;19920;-66
2023/01/01 09:31:35;;;;;;;;;;;15.60;61.30;;;;;;5155933;27;20326;-66
2023/01/01 09:34:01;;;;;;;;;;;15.60;61.30;;;;;;5155916;27;20286;-73
2023/01/01 09:36:28;;;;;;;;;;;15.60;61.30;;;;;;5156141;27;20350;-66
2023/01/01 09:38:54;;;;;;;;;;;15.60;61.20;;;;;;5155628;27;19923;-66
2023/01/01 09:41:40;;;;;;;;;;;15.60;61.20;;;;;;5155788;27;19919;-66
2023/01/01 09:44:15;;;;;;;;;;;15.60;61.20;;;;;;5137119;27;19972;-66
2023/01/01 09:46:41;;;;;;;;;;;15.60;61.20;;;;;;5155521;27;19925;-66
2023/01/01 09:49:13;;;;;;;;;;;15.60;61.20;;;;;;5155542;27;20022;-66
2023/01/01 09:51:39;;;;;;;;;;;15.60;61.10;;;;;;5155592;27;20340;-72
2023/01/01 09:54:25;;;;;;;;;;;15.60;61.10;;;;;;5136933;27;20426;-66
2023/01/01 09:56:53;;;;;;;;;;;15.60;61.90;;;;;;5136978;27;20282;-66
2023/01/01 09:59:19;;;;;;;;;;;15.60;61.10;;;;;;5136655;27;19923;-66
2023/01/01 10:01:48;;;;;;;;;;;15.60;61.10;;;;;;5136499;27;19972;-66
2023/01/01 10:04:22;;;;;;;;;;;15.60;61.10;;;;;;5155255;27;19919;-73
2023/01/01 10:06:56;;;;;;;;;;;15.60;61.10;;;;;;5136412;27;19919;-66
2023/01/01 10:09:27;;;;;;;;;;;15.60;61.10;;;;;;5136522;27;20363;-66
2023/01/01 10:12:06;;;;;;;;;;;15.60;61.10;;;;;;5155077;27;19926;-66
2023/01/01 10:14:34;;;;;;;;;;;15.60;61.80;;;;;;5154224;27;19919;-66
2023/01/01 10:17:02;;;;;;;;;;;15.60;61.00;;;;;;5136351;27;20362;-66
2023/01/01 10:19:33;;;;;;;;;;;15.60;61.00;;;;;;5135842;27;19927;-66
2023/01/01 10:22:02;;;;;;;;;;;15.60;61.20;;;;;;5154558;27;20127;-66
2023/01/01 10:27:05;;;;;;;;;;;15.60;61.00;;;;;;5125733;27;1920012;-66
2023/01/01 10:29:48;;;;;;;;;;;15.60;61.00;;;;;;5174971;27;19919;-65
2023/01/01 10:32:16;;;;;;;;;;;15.60;61.00;;;;;;5174465;27;20343;-65
2023/01/01 10:34:41;;;;;;;;;;;15.60;61.00;;;;;;5174503;27;19918;-66
2023/01/01 10:37:07;;;;;;;;;;;15.60;61.00;;;;;;5174456;27;19926;-65
2023/01/01 10:39:34;;;;;;;;;;;15.60;60.90;;;;;;5174157;27;19914;-65
2023/01/01 10:42:00;;;;;;;;;;;15.60;61.00;;;;;;5174086;27;19981;-65
2023/01/01 10:44:29;;;;;;;;;;;15.60;60.90;;;;;;5174567;27;20168;-65
2023/01/01 10:46:57;;;;;;;;;;;15.60;60.90;;;;;;5192826;27;19926;-65
2023/01/01 10:49:22;;;;;;;;;;;15.60;60.90;;;;;;5174111;27;19915;-66
2023/01/01 10:51:49;;;;;;;;;;;15.60;60.90;;;;;;5174093;27;19922;-66
2023/01/01 10:54:32;;;;;;;;;;;15.50;60.80;;;;;;5173770;27;19914;-66
2023/01/01 10:56:58;;;;;;;;;;;15.60;60.80;;;;;;5174186;27;20114;-65
2023/01/01 11:02:19;;;;;;;;;;;15.60;60.80;;;;;;5130512;27;20281;-66
2023/01/01 11:04:46;;;;;;;;;;;15.60;60.80;;;;;;5129423;28;20317;-65
2023/01/01 11:07:17;;;;;;;;;;;15.60;60.80;;;;;;5129700;28;20279;-65
2023/01/01 11:09:46;;;;;;;;;;;15.60;60.80;;;;;;5129568;28;19964;-65
2023/01/01 11:12:16;;;;;;;;;;;15.60;60.80;;;;;;5164284;27;19920;-66
2023/01/01 11:17:24;;;;;;;;;;;15.60;60.80;;;;;;5110093;27;19944;-66
2023/01/01 11:19:50;;;;;;;;;;;15.60;60.70;;;;;;5108655;28;20347;-65
2023/01/01 11:22:36;;;;;;;;;;;15.50;60.70;;;;;;5108875;28;19916;-66
2023/01/01 11:25:02;;;;;;;;;;;15.60;60.80;;;;;;5108434;28;19965;-65
2023/01/01 11:27:28;;;;;;;;;;;15.60;60.80;;;;;;5108371;28;19970;-66
2023/01/01 11:30:13;;;;;;;;;;;15.60;60.70;;;;;;5108546;28;19955;-72
2023/01/01 11:32:39;;;;;;;;;;;15.60;60.70;;;;;;5108509;28;19916;-65
2023/01/01 11:35:06;;;;;;;;;;;15.60;60.70;;;;;;5109819;28;19969;-65
2023/01/01 11:37:34;;;;;;;;;;;15.60;60.70;;;;;;5109284;28;19969;-72
2023/01/01 11:40:01;;;;;;;;;;;15.60;60.70;;;;;;5108617;28;20295;-72
2023/01/01 11:42:28;;;;;;;;;;;15.60;60.70;;;;;;5108455;28;19915;-65
2023/01/01 11:44:57;;;;;;;;;;;15.70;60.70;;;;;;5109708;28;19920;-66
2023/01/01 11:47:25;;;;;;;;;;;15.60;60.70;;;;;;5109752;28;20413;-65
2023/01/01 11:49:54;;;;;;;;;;;15.60;60.70;;;;;;5108690;28;20265;-65
2023/01/01 11:52:40;;;;;;;;;;;15.70;60.70;;;;;;5109536;28;19927;-70
2023/01/01 11:55:11;;;;;;;;;;;15.60;60.70;;;;;;5107571;28;19920;-65
2023/01/01 11:57:38;;;;;;;;;;;15.60;60.70;;;;;;5109397;28;20376;-71
2023/01/01 12:00:04;;;;;;;;;;;15.60;60.60;;;;;;5107829;28;19924;-65
2023/01/01 12:02:35;;;;;;;;;;;15.60;60.70;;;;;;5109097;28;19927;-72
2023/01/01 12:05:08;;;;;;;;;;;15.60;60.70;;;;;;5108074;28;19916;-65
2023/01/01 12:07:35;;;;;;;;;;;15.60;60.60;;;;;;5108931;28;19928;-66
2023/01/01 12:10:03;;;;;;;;;;;15.60;60.60;;;;;;5107440;28;19924;-65
2023/01/01 12:12:33;;;;;;;;;;;15.60;60.60;;;;;;5108945;28;20270;-66
2023/01/01 12:15:14;;;;;;;;;;;15.60;60.60;;;;;;5108226;28;20521;-65
2023/01/01 12:17:42;;;;;;;;;;;15.60;60.60;;;;;;5111247;28;20379;-65
2023/01/01 12:20:25;;;;;;;;;;;15.60;60.60;;;;;;5145751;27;19923;-65
2023/01/01 12:22:54;;;;;;;;;;;15.60;60.70;;;;;;5129709;28;19946;-65
2023/01/01 12:25:19;;;;;;;;;;;15.60;60.60;;;;;;5129589;28;19927;-65
2023/01/01 12:30:31;;;;;;;;;;;15.60;60.60;;;;;;5089948;28;20380;-65
2023/01/01 12:33:16;;;;;;;;;;;15.60;60.60;;;;;;5088570;28;19936;-70
2023/01/01 12:38:43;;;;;;;;;;;15.60;60.60;;;;;;5090003;28;19919;-66
2023/01/01 12:41:28;;;;;;;;;;;15.60;60.60;;;;;;5088320;28;19924;-72
2023/01/01 12:58:03;;;;;;;;;;;15.60;60.60;;;;;;5110274;27;20300;-65
2023/01/01 13:00:31;;;;;;;;;;;15.60;60.60;;;;;;5108903;28;20432;-65
2023/01/01 13:03:03;;;;;;;;;;;15.60;60.70;;;;;;5109229;28;20523;-72
2023/01/01 13:05:35;;;;;;;;;;;15.60;60.60;;;;;;5109167;28;20268;-65
2023/01/01 13:08:02;;;;;;;;;;;15.60;60.60;;;;;;5109111;28;19927;-65
2023/01/01 13:10:33;;;;;;;;;;;15.50;60.60;;;;;;5108787;28;19921;-65
2023/01/01 13:12:59;;;;;;;;;;;15.60;60.70;;;;;;5108908;28;20474;-66
2023/01/01 13:18:21;;;;;;;;;;;15.60;60.70;;;;;;5110253;27;19912;-65
2023/01/01 13:34:36;;;;;;;;;;;15.50;60.60;;;;;;5089877;28;19938;-73
2023/01/01 13:42:51;;;;;;;;;;;15.60;60.70;;;;;;5110262;27;19942;-65
2023/01/01 13:45:23;;;;;;;;;;;15.50;60.60;;;;;;5108827;28;19931;-72
2023/01/01 13:58:52;;;;;;;;;;;15.60;60.80;;;;;;5129270;27;1872563;-65
2023/01/01 14:01:24;;;;;;;;;;;15.50;60.80;;;;;;5174457;27;19925;-65
2023/01/01 14:03:51;;;;;;;;;;;15.50;60.70;;;;;;5174442;27;19927;-65
2023/01/01 14:09:05;;;;;;;;;;;15.50;60.70;;;;;;5089945;28;19919;-65
2023/01/01 14:11:31;;;;;;;;;;;15.50;60.80;;;;;;5088028;28;19928;-65
2023/01/01 14:13:56;;;;;;;;;;;15.50;60.80;;;;;;5088675;28;19924;-66
2023/01/01 14:16:24;;;;;;;;;;;15.50;60.80;;;;;;5088871;28;20627;-72
2023/01/01 14:18:52;;;;;;;;;;;15.50;60.80;;;;;;5088746;28;19927;-72
2023/01/01 14:21:18;;;;;;;;;;;15.50;61.50;;;;;;5088485;28;19920;-72
2023/01/01 14:23:46;;;;;;;;;;;15.50;60.80;;;;;;5088731;28;19927;-66
2023/01/01 14:26:14;;;;;;;;;;;15.50;60.80;;;;;;5088365;28;19920;-66
2023/01/01 14:28:40;;;;;;;;;;;15.50;60.80;;;;;;5088242;28;20039;-66
2023/01/01 14:31:10;;;;;;;;;;;15.50;60.80;;;;;;5088524;28;19970;-66
2023/01/01 14:33:36;;;;;;;;;;;15.60;60.90;;;;;;5088197;28;20431;-66
2023/01/01 14:36:04;;;;;;;;;;;15.50;60.80;;;;;;5088114;28;19971;-65
2023/01/01 14:38:32;;;;;;;;;;;15.50;60.80;;;;;;5089379;28;19965;-65
2023/01/01 14:43:46;;;;;;;;;;;15.50;60.90;;;;;;5089864;28;20398;-65
2023/01/01 14:46:15;;;;;;;;;;;15.50;60.90;;;;;;5088848;28;19944;-65
2023/01/01 14:48:43;;;;;;;;;;;15.50;60.90;;;;;;5088627;28;19932;-65
2023/01/01 14:51:11;;;;;;;;;;;15.50;60.90;;;;;;5089719;28;19924;-65
2023/01/01 14:53:37;;;;;;;;;;;15.50;60.90;;;;;;5088762;28;19920;-65
2023/01/01 14:56:05;;;;;;;;;;;15.50;60.90;;;;;;5088642;28;19974;-72
2023/01/01 14:58:32;;;;;;;;;;;15.50;60.90;;;;;;5089684;28;19947;-72
2023/01/01 15:01:14;;;;;;;;;;;15.50;60.90;;;;;;5088246;28;19955;-65
2023/01/01 15:03:40;;;;;;;;;;;15.50;60.90;;;;;;5089588;28;19964;-65
2023/01/01 15:06:14;;;;;;;;;;;15.50;60.90;;;;;;5088047;28;19924;-65
2023/01/01 15:08:40;;;;;;;;;;;15.60;61.00;;;;;;5089486;28;19945;-67
2023/01/01 15:11:06;;;;;;;;;;;15.50;60.90;;;;;;5088177;28;19920;-66
2023/01/01 15:13:31;;;;;;;;;;;15.50;60.90;;;;;;5088082;28;19931;-74
2023/01/01 15:16:14;;;;;;;;;;;15.50;60.90;;;;;;5087985;28;19925;-73
2023/01/01 15:18:41;;;;;;;;;;;15.50;60.90;;;;;;5088358;28;20334;-72
2023/01/01 15:21:26;;;;;;;;;;;15.50;60.90;;;;;;5088116;28;20043;-66
2023/01/01 15:23:58;;;;;;;;;;;15.50;61.00;;;;;;5089089;28;19971;-66
2023/01/01 15:26:26;;;;;;;;;;;15.50;60.90;;;;;;5089196;28;19920;-66
2023/01/01 15:28:52;;;;;;;;;;;15.50;60.90;;;;;;5087862;28;19928;-66
2023/01/01 15:31:18;;;;;;;;;;;15.50;60.90;;;;;;5087728;28;19921;-73
2023/01/01 15:33:46;;;;;;;;;;;15.50;61.70;;;;;;5087723;28;19920;-66
2023/01/01 15:36:11;;;;;;;;;;;15.50;60.90;;;;;;5089161;28;20011;-66
2023/01/01 15:38:37;;;;;;;;;;;15.50;60.90;;;;;;5088859;28;19967;-66
2023/01/01 15:41:22;;;;;;;;;;;15.50;60.90;;;;;;5070805;28;19920;-66
2023/01/01 15:43:48;;;;;;;;;;;15.50;61.00;;;;;;5084225;28;19928;-66